Time;durP1;ratioP1;P1;durP2;ratioP2;P2;SDS_P1;SDS_P2;PMS_P1;PMS_P2;Temp;Humidity;BMP_temperature;BMP_pressure;BME280_temperature;BME280_humidity;BME280_pressure;Samples;Min_cycle;Max_cycle;Signal;HPM_P1;HPM_P2
2021/07/26 00:00:00;;;;;;;3.77;2.77;;;18.90;99.90;;;;;;7651398;23;20190;-65
2021/07/26 00:03:13;;;;;;;3.90;2.50;;;19.00;99.90;;;;;;7677038;23;20597;-65
2021/07/26 00:06:16;;;;;;;2.40;2.20;;;18.90;99.90;;;;;;7677346;23;20190;-66
2021/07/26 00:09:18;;;;;;;2.70;2.33;;;18.90;99.90;;;;;;7676789;23;20164;-65
2021/07/26 00:12:20;;;;;;;4.43;3.00;;;18.80;99.90;;;;;;7677445;23;20164;-66
2021/07/26 00:15:23;;;;;;;5.80;3.00;;;18.70;99.90;;;;;;7677020;23;20168;-66
2021/07/26 00:18:29;;;;;;;2.80;2.60;;;18.60;99.90;;;;;;7650875;23;20199;-65
2021/07/26 00:21:31;;;;;;;3.23;2.67;;;18.50;99.90;;;;;;7626196;23;20208;-65
2021/07/26 00:24:33;;;;;;;3.13;2.53;;;18.30;99.90;;;;;;7676850;23;20164;-65
2021/07/26 00:27:36;;;;;;;3.73;2.70;;;18.20;99.90;;;;;;7677316;23;20534;-65
2021/07/26 00:30:38;;;;;;;3.23;2.90;;;18.10;99.90;;;;;;7676515;23;20179;-65
2021/07/26 00:34:08;;;;;;;2.70;2.50;;;18.10;99.90;;;;;;7677120;23;20178;-65
2021/07/26 00:37:11;;;;;;;2.90;2.67;;;18.10;99.90;;;;;;7677222;23;20157;-65
2021/07/26 00:40:13;;;;;;;3.30;2.80;;;18.10;99.90;;;;;;7676366;23;20644;-65
2021/07/26 00:43:15;;;;;;;3.13;2.73;;;17.90;99.90;;;;;;7677125;23;20168;-65
2021/07/26 00:46:18;;;;;;;4.20;2.97;;;17.90;99.90;;;;;;7676456;23;20601;-65
2021/07/26 00:49:22;;;;;;;3.93;2.80;;;17.80;99.90;;;;;;7676910;23;20175;-65
2021/07/26 00:52:25;;;;;;;4.10;2.83;;;17.80;99.90;;;;;;7651986;23;20168;-66
2021/07/26 00:55:28;;;;;;;2.83;2.53;;;17.70;99.90;;;;;;7679578;23;20171;-65
2021/07/26 00:58:30;;;;;;;4.07;2.80;;;17.70;99.90;;;;;;7653469;23;20662;-65
2021/07/26 01:01:33;;;;;;;3.00;2.77;;;17.70;99.90;;;;;;7652728;23;20164;-66
2021/07/26 01:04:35;;;;;;;2.63;2.43;;;17.70;99.90;;;;;;7679349;23;20187;-66
2021/07/26 01:07:38;;;;;;;2.77;2.57;;;17.70;99.90;;;;;;7678975;23;20160;-65
2021/07/26 01:10:40;;;;;;;3.17;2.87;;;17.70;99.90;;;;;;7679425;23;20169;-65
2021/07/26 01:13:43;;;;;;;3.27;2.77;;;17.70;99.90;;;;;;7653190;23;20595;-65
2021/07/26 01:16:47;;;;;;;5.40;2.80;;;17.60;99.90;;;;;;7678836;23;20195;-65
2021/07/26 01:19:49;;;;;;;4.13;2.80;;;17.50;99.90;;;;;;7652850;23;20183;-65
2021/07/26 01:22:51;;;;;;;3.20;2.33;;;17.50;99.90;;;;;;7652557;23;20199;-65
2021/07/26 01:25:54;;;;;;;5.43;2.97;;;17.50;99.90;;;;;;7679142;23;20164;-65
2021/07/26 01:28:59;;;;;;;4.33;2.70;;;17.40;99.90;;;;;;7679301;23;20164;-66
2021/07/26 01:32:01;;;;;;;3.53;2.40;;;17.30;99.90;;;;;;7651940;23;20180;-65
2021/07/26 01:35:04;;;;;;;3.23;2.93;;;17.30;99.90;;;;;;7652705;23;20172;-65
2021/07/26 01:38:08;;;;;;;2.73;2.53;;;17.20;99.90;;;;;;7652641;23;20191;-65
2021/07/26 01:41:18;;;;;;;3.57;3.00;;;17.20;99.90;;;;;;7679050;23;20161;-65
2021/07/26 01:44:20;;;;;;;3.00;2.80;;;17.10;99.90;;;;;;7678737;23;20580;-65
2021/07/26 01:47:25;;;;;;;5.27;2.93;;;17.10;99.90;;;;;;7652354;23;20182;-66
2021/07/26 01:50:31;;;;;;;5.27;2.83;;;17.00;99.90;;;;;;7679010;23;20484;-65
2021/07/26 01:53:34;;;;;;;3.27;2.97;;;17.00;99.90;;;;;;7678466;23;20232;-65
2021/07/26 01:56:36;;;;;;;3.20;2.73;;;16.90;99.90;;;;;;7652855;23;20225;-66
2021/07/26 01:59:39;;;;;;;5.40;3.50;;;16.90;99.90;;;;;;7652145;23;20192;-66
2021/07/26 02:02:41;;;;;;;3.50;3.20;;;16.90;99.90;;;;;;7627432;23;20238;-65
2021/07/26 02:05:43;;;;;;;4.13;3.10;;;16.90;99.90;;;;;;7678711;23;20180;-65
2021/07/26 02:08:46;;;;;;;5.50;3.20;;;16.90;99.90;;;;;;7651833;23;20186;-65
2021/07/26 02:11:48;;;;;;;4.63;3.40;;;16.90;99.90;;;;;;7652676;23;20191;-65
2021/07/26 02:14:50;;;;;;;4.10;3.53;;;16.90;99.90;;;;;;7678220;23;20172;-66
2021/07/26 02:17:52;;;;;;;7.80;3.50;;;16.80;99.90;;;;;;7652255;23;20183;-65
2021/07/26 02:20:55;;;;;;;7.07;3.30;;;16.70;99.90;;;;;;7652231;23;20245;-66
2021/07/26 02:23:57;;;;;;;5.53;2.80;;;16.70;99.90;;;;;;7678128;23;20164;-65
2021/07/26 02:26:59;;;;;;;5.47;2.53;;;16.70;99.90;;;;;;7678682;23;20164;-65
2021/07/26 02:30:02;;;;;;;3.07;2.60;;;16.70;99.90;;;;;;7678132;23;20248;-66
2021/07/26 02:33:05;;;;;;;3.93;3.53;;;16.60;99.90;;;;;;7627817;23;20640;-66
2021/07/26 02:36:07;;;;;;;7.77;2.90;;;16.60;99.90;;;;;;7677893;23;20478;-66
2021/07/26 02:39:09;;;;;;;5.13;3.20;;;16.60;99.90;;;;;;7652324;23;20237;-66
2021/07/26 02:42:12;;;;;;;3.73;3.27;;;16.50;99.90;;;;;;7627488;23;20223;-66
2021/07/26 02:45:14;;;;;;;4.40;2.80;;;16.50;99.90;;;;;;7677599;23;20187;-66
2021/07/26 02:48:16;;;;;;;4.33;3.23;;;16.50;99.90;;;;;;7678188;23;20173;-66
2021/07/26 02:51:18;;;;;;;4.37;3.30;;;16.50;99.90;;;;;;7651308;23;20525;-66
2021/07/26 02:54:21;;;;;;;4.17;3.40;;;16.50;99.90;;;;;;7678364;23;20166;-66
2021/07/26 02:57:23;;;;;;;12.17;3.70;;;16.40;99.90;;;;;;7678278;23;20227;-65
2021/07/26 03:00:25;;;;;;;4.67;3.17;;;16.40;99.90;;;;;;7650872;23;20188;-66
2021/07/26 03:03:28;;;;;;;7.47;3.00;;;16.50;99.90;;;;;;7678181;23;20600;-66
2021/07/26 03:06:30;;;;;;;4.20;3.60;;;16.40;99.90;;;;;;7651456;23;20258;-66
2021/07/26 03:09:32;;;;;;;4.03;3.50;;;16.40;99.90;;;;;;7678141;23;20180;-66
2021/07/26 03:12:35;;;;;;;3.60;3.10;;;16.40;99.90;;;;;;7651741;23;20180;-66
2021/07/26 03:15:37;;;;;;;4.67;3.23;;;16.30;99.90;;;;;;7651014;23;20168;-65
2021/07/26 03:18:40;;;;;;;5.10;3.37;;;16.20;99.90;;;;;;7677844;23;20192;-66
2021/07/26 03:21:42;;;;;;;4.53;3.70;;;16.20;99.90;;;;;;7677089;23;20275;-65
2021/07/26 03:24:44;;;;;;;4.93;3.57;;;16.20;99.90;;;;;;7651422;23;20692;-65
2021/07/26 03:27:50;;;;;;;3.80;3.40;;;16.10;99.90;;;;;;7677373;23;20167;-66
2021/07/26 03:30:52;;;;;;;3.57;3.23;;;16.10;99.90;;;;;;7677674;23;20244;-66
2021/07/26 03:33:55;;;;;;;5.10;3.40;;;16.00;99.90;;;;;;7677783;23;20243;-65
2021/07/26 03:36:57;;;;;;;3.93;3.13;;;16.00;99.90;;;;;;7677179;23;20272;-66
2021/07/26 03:39:59;;;;;;;3.67;3.37;;;16.00;99.90;;;;;;7677586;23;20180;-66
2021/07/26 03:43:02;;;;;;;3.63;3.00;;;16.00;99.90;;;;;;7677031;23;20160;-66
2021/07/26 03:46:05;;;;;;;4.23;3.83;;;16.10;99.90;;;;;;7677139;23;20617;-66
2021/07/26 03:49:07;;;;;;;4.40;3.50;;;16.10;99.90;;;;;;7677224;23;20168;-66
2021/07/26 03:52:09;;;;;;;4.50;3.37;;;16.10;99.90;;;;;;7676454;23;20188;-65
2021/07/26 03:55:15;;;;;;;4.17;3.53;;;16.20;99.90;;;;;;7677183;23;20247;-66
2021/07/26 03:58:17;;;;;;;5.60;3.80;;;16.10;99.90;;;;;;7676462;23;20486;-65
2021/07/26 04:01:20;;;;;;;4.33;3.30;;;16.10;99.90;;;;;;7677028;23;20192;-65
2021/07/26 04:04:24;;;;;;;6.13;3.60;;;16.10;99.90;;;;;;7677148;23;20897;-65
2021/07/26 04:07:27;;;;;;;3.90;3.43;;;16.00;99.90;;;;;;7676572;23;20168;-66
2021/07/26 04:10:29;;;;;;;3.83;3.53;;;16.00;99.90;;;;;;7676840;23;20175;-66
2021/07/26 04:13:34;;;;;;;4.73;4.07;;;16.00;99.90;;;;;;7676262;23;20663;-66
2021/07/26 04:16:37;;;;;;;3.90;3.53;;;16.10;99.90;;;;;;7651025;23;20235;-65
2021/07/26 04:19:39;;;;;;;6.83;3.40;;;16.10;99.90;;;;;;7676281;23;20632;-65
2021/07/26 04:22:42;;;;;;;3.60;3.30;;;16.10;99.90;;;;;;7676787;23;20561;-65
2021/07/26 04:25:44;;;;;;;3.50;3.20;;;16.10;99.90;;;;;;7649940;23;20192;-65
2021/07/26 04:28:46;;;;;;;4.87;3.40;;;16.20;99.90;;;;;;7676199;23;20172;-65
2021/07/26 04:31:50;;;;;;;3.60;3.30;;;16.20;99.90;;;;;;7650283;23;20183;-65
2021/07/26 04:34:52;;;;;;;4.30;3.83;;;16.20;99.90;;;;;;7649832;23;20198;-65
2021/07/26 04:37:54;;;;;;;6.47;3.77;;;16.20;99.90;;;;;;7676760;23;20164;-66
2021/07/26 04:40:58;;;;;;;3.43;3.13;;;16.30;99.90;;;;;;7676384;23;20190;-66
2021/07/26 04:44:00;;;;;;;3.73;3.10;;;16.30;99.90;;;;;;7625508;23;20168;-65
2021/07/26 04:47:04;;;;;;;3.63;2.70;;;16.40;99.90;;;;;;7676653;23;20252;-65
2021/07/26 04:50:07;;;;;;;3.70;3.40;;;16.40;99.90;;;;;;7650019;23;20168;-65
2021/07/26 04:53:10;;;;;;;3.40;3.07;;;16.50;99.90;;;;;;7650422;23;20580;-66
2021/07/26 04:56:12;;;;;;;3.93;3.53;;;16.50;99.90;;;;;;7676561;23;20533;-65
2021/07/26 04:59:14;;;;;;;3.80;3.50;;;16.50;99.90;;;;;;7675899;23;20612;-65
2021/07/26 05:02:16;;;;;;;3.77;3.47;;;16.60;99.90;;;;;;7676456;23;20602;-65
2021/07/26 05:05:19;;;;;;;4.73;3.37;;;16.60;99.90;;;;;;7649926;23;20180;-65
2021/07/26 05:08:21;;;;;;;5.37;3.47;;;16.60;99.90;;;;;;7650114;23;20187;-66
2021/07/26 05:11:24;;;;;;;4.33;3.80;;;16.70;99.90;;;;;;7625102;23;20640;-65
2021/07/26 05:14:26;;;;;;;3.87;3.50;;;16.70;99.90;;;;;;7650189;23;20607;-65
2021/07/26 05:17:28;;;;;;;3.80;3.33;;;16.70;99.90;;;;;;7650524;23;20222;-65
2021/07/26 05:20:32;;;;;;;4.23;3.73;;;16.80;99.90;;;;;;7649067;23;20204;-65
2021/07/26 05:23:34;;;;;;;5.50;3.70;;;16.80;99.90;;;;;;7676382;23;20164;-65
2021/07/26 05:26:36;;;;;;;4.03;3.63;;;16.90;99.90;;;;;;7675875;23;20243;-65
2021/07/26 05:29:39;;;;;;;4.53;3.83;;;16.90;99.90;;;;;;7676625;23;20179;-65
2021/07/26 05:32:41;;;;;;;5.23;3.80;;;16.90;99.90;;;;;;7650116;23;20172;-66
2021/07/26 05:35:45;;;;;;;3.80;3.50;;;17.00;99.90;;;;;;7675869;23;20172;-65
2021/07/26 05:38:47;;;;;;;4.00;3.53;;;17.10;99.90;;;;;;7677703;23;20554;-65
2021/07/26 05:41:50;;;;;;;4.53;4.00;;;17.20;99.90;;;;;;7652162;23;20613;-65
2021/07/26 05:44:55;;;;;;;4.13;3.70;;;17.30;99.90;;;;;;7678714;23;20160;-65
2021/07/26 05:47:57;;;;;;;4.33;3.93;;;17.50;99.90;;;;;;7652587;23;20167;-66
2021/07/26 05:51:00;;;;;;;6.40;3.67;;;17.60;99.90;;;;;;7678037;23;20536;-65
2021/07/26 05:54:04;;;;;;;5.97;3.80;;;17.70;99.90;;;;;;7678420;23;20227;-66
2021/07/26 05:57:14;;;;;;;4.50;3.47;;;17.80;99.90;;;;;;7677945;23;20168;-65
2021/07/26 06:00:23;;;;;;;6.33;3.83;;;18.00;99.90;;;;;;7678446;23;20181;-65
2021/07/26 06:03:26;;;;;;;3.93;3.60;;;18.20;99.90;;;;;;7677958;23;20207;-65
2021/07/26 06:06:29;;;;;;;4.67;3.77;;;18.30;99.90;;;;;;7678446;23;20551;-65
2021/07/26 06:09:31;;;;;;;3.80;3.33;;;18.40;99.90;;;;;;7678236;23;20171;-66
2021/07/26 06:12:33;;;;;;;3.73;3.43;;;18.50;99.90;;;;;;7677907;23;20179;-65
2021/07/26 06:15:36;;;;;;;3.77;3.40;;;18.70;99.90;;;;;;7678168;23;20184;-66
2021/07/26 06:18:40;;;;;;;4.40;4.00;;;18.80;99.90;;;;;;7677906;23;20200;-65
2021/07/26 06:21:48;;;;;;;3.90;3.60;;;18.90;99.90;;;;;;7677699;23;20223;-65
2021/07/26 06:24:50;;;;;;;3.67;3.20;;;19.10;99.90;;;;;;7678413;23;20153;-66
2021/07/26 06:27:54;;;;;;;3.17;2.97;;;19.20;99.90;;;;;;7677710;23;20601;-65
2021/07/26 06:30:56;;;;;;;7.13;3.80;;;19.40;99.90;;;;;;7678178;23;20520;-65
2021/07/26 06:33:59;;;;;;;6.83;3.93;;;19.60;99.90;;;;;;7677467;23;20164;-66
2021/07/26 06:37:02;;;;;;;4.53;4.13;;;19.70;99.90;;;;;;7678027;23;20164;-65
2021/07/26 06:40:07;;;;;;;3.77;3.47;;;19.80;99.90;;;;;;7677964;23;20198;-65
2021/07/26 06:43:10;;;;;;;4.50;3.70;;;19.90;99.90;;;;;;7677737;23;20224;-65
2021/07/26 06:46:12;;;;;;;6.00;4.30;;;20.00;99.90;;;;;;7678059;23;20168;-66
2021/07/26 06:49:15;;;;;;;3.90;3.50;;;20.10;99.90;;;;;;7650914;23;20160;-66
2021/07/26 06:52:18;;;;;;;4.50;3.57;;;20.20;99.90;;;;;;7677787;23;20165;-66
2021/07/26 06:55:21;;;;;;;4.20;3.77;;;20.30;99.90;;;;;;7677768;23;20509;-66
2021/07/26 06:58:23;;;;;;;3.93;3.50;;;20.40;99.90;;;;;;7678273;23;20207;-66
2021/07/26 07:01:25;;;;;;;3.80;3.50;;;20.60;99.90;;;;;;7650658;23;20207;-66
2021/07/26 07:04:28;;;;;;;4.20;3.80;;;20.90;99.90;;;;;;7676336;23;20239;-66
2021/07/26 07:07:30;;;;;;;3.97;3.57;;;21.10;99.90;;;;;;7676946;23;20160;-65
2021/07/26 07:10:32;;;;;;;4.27;3.53;;;21.50;99.90;;;;;;7676913;23;20659;-66
2021/07/26 07:13:37;;;;;;;3.87;3.50;;;21.80;99.90;;;;;;7677504;23;20175;-65
2021/07/26 07:16:40;;;;;;;4.50;4.10;;;22.00;99.90;;;;;;7651646;23;20160;-65
2021/07/26 07:19:43;;;;;;;8.33;4.43;;;22.30;99.90;;;;;;7676889;23;20208;-65
2021/07/26 07:22:45;;;;;;;5.00;4.50;;;22.50;99.90;;;;;;7677235;23;20191;-65
2021/07/26 07:25:47;;;;;;;5.53;5.03;;;22.70;99.90;;;;;;7675547;23;20187;-66
2021/07/26 07:28:50;;;;;;;5.30;4.73;;;22.90;99.90;;;;;;7676931;23;20161;-66
2021/07/26 07:31:53;;;;;;;6.07;5.47;;;23.20;99.90;;;;;;7676877;23;20168;-65
2021/07/26 07:34:55;;;;;;;8.23;5.23;;;23.50;99.90;;;;;;7676051;23;20172;-65
2021/07/26 07:37:57;;;;;;;6.23;5.57;;;23.70;99.90;;;;;;7650283;23;20553;-65
2021/07/26 07:41:01;;;;;;;6.33;5.77;;;23.90;99.90;;;;;;7675736;23;20726;-66
2021/07/26 07:44:03;;;;;;;6.50;5.83;;;24.00;99.90;;;;;;7676468;23;20171;-65
2021/07/26 07:47:08;;;;;;;7.93;5.97;;;24.30;99.90;;;;;;7676363;23;20290;-65
2021/07/26 07:50:14;;;;;;;6.80;5.40;;;24.60;99.90;;;;;;7677333;23;20168;-66
2021/07/26 07:53:16;;;;;;;6.23;5.10;;;24.90;99.90;;;;;;7677390;23;20160;-66
2021/07/26 07:56:18;;;;;;;5.30;4.90;;;25.30;99.90;;;;;;7676830;23;20247;-66
2021/07/26 07:59:21;;;;;;;5.57;5.00;;;25.60;99.90;;;;;;7677179;23;20164;-65
2021/07/26 08:02:23;;;;;;;5.70;5.00;;;25.80;99.90;;;;;;7650394;23;20168;-65
2021/07/26 08:05:28;;;;;;;6.83;6.13;;;26.00;99.90;;;;;;7677107;23;20667;-65
2021/07/26 08:08:30;;;;;;;5.23;4.83;;;26.10;99.90;;;;;;7677169;23;20454;-66
2021/07/26 08:11:32;;;;;;;5.72;5.28;;;26.30;99.90;;;;;;7676375;23;20219;-65
2021/07/26 08:14:35;;;;;;;5.35;4.93;;;26.60;99.90;;;;;;7677193;23;20616;-65
2021/07/26 08:17:42;;;;;;;5.70;5.18;;;26.90;99.90;;;;;;7676219;23;20622;-65
2021/07/26 08:20:46;;;;;;;7.13;5.13;;;27.10;99.90;;;;;;7676816;23;20711;-65
2021/07/26 08:23:48;;;;;;;6.25;5.65;;;27.30;99.90;;;;;;7650776;23;21036;-65
2021/07/26 08:26:50;;;;;;;5.78;5.30;;;27.50;99.70;;;;;;7677300;23;20160;-65
2021/07/26 08:29:53;;;;;;;6.43;5.47;;;27.70;99.60;;;;;;7677019;23;20210;-65
2021/07/26 08:32:56;;;;;;;5.82;5.32;;;28.00;98.10;;;;;;7676554;23;20179;-64
2021/07/26 08:35:58;;;;;;;5.78;5.22;;;28.30;98.10;;;;;;7676886;23;20172;-66
2021/07/26 08:39:01;;;;;;;5.65;5.15;;;28.60;97.80;;;;;;7676442;23;20164;-66
2021/07/26 08:42:05;;;;;;;6.55;5.57;;;28.80;97.00;;;;;;7676566;23;20191;-66
2021/07/26 08:45:09;;;;;;;7.18;5.15;;;29.00;97.20;;;;;;7676858;23;20492;-66
2021/07/26 08:48:14;;;;;;;6.70;5.68;;;29.20;95.30;;;;;;7675969;23;20498;-66
2021/07/26 08:51:20;;;;;;;5.85;5.30;;;29.30;94.50;;;;;;7676722;23;20160;-66
2021/07/26 08:54:24;;;;;;;5.45;4.82;;;29.30;93.90;;;;;;7676455;23;20180;-66
2021/07/26 08:57:29;;;;;;;4.90;4.50;;;29.40;93.30;;;;;;7676591;23;20408;-66
2021/07/26 09:00:32;;;;;;;6.80;5.35;;;29.60;92.70;;;;;;7651119;23;20216;-66
2021/07/26 09:03:34;;;;;;;6.20;5.50;;;29.60;91.80;;;;;;7676116;23;20601;-66
2021/07/26 09:06:37;;;;;;;7.35;5.35;;;29.80;85.30;;;;;;7676603;23;20527;-67
2021/07/26 09:09:47;;;;;;;6.18;4.80;;;29.90;89.30;;;;;;7675997;23;20164;-66
2021/07/26 09:12:53;;;;;;;5.88;5.25;;;30.30;90.50;;;;;;7626758;23;20263;-66
2021/07/26 09:16:21;;;;;;;7.00;4.85;;;30.70;90.00;;;;;;7652267;23;20156;-66
2021/07/26 09:19:24;;;;;;;4.47;4.00;;;30.80;87.40;;;;;;7652679;23;20589;-66
2021/07/26 09:22:35;;;;;;;4.78;4.28;;;30.70;79.30;;;;;;7678765;23;20195;-66
2021/07/26 09:25:45;;;;;;;5.28;4.32;;;31.00;80.00;;;;;;7678523;23;20223;-66
2021/07/26 09:28:47;;;;;;;4.93;3.90;;;30.90;78.60;;;;;;7679799;23;20663;-67
2021/07/26 09:32:03;;;;;;;3.67;3.38;;;31.00;76.90;;;;;;7678188;23;20203;-66
2021/07/26 09:35:07;;;;;;;4.03;3.63;;;30.70;69.90;;;;;;7679037;23;20160;-66
2021/07/26 09:38:10;;;;;;;4.47;4.07;;;30.60;74.50;;;;;;7678809;23;20172;-67
2021/07/26 09:41:12;;;;;;;4.80;3.60;;;30.70;72.10;;;;;;7678860;23;20509;-66
2021/07/26 09:44:25;;;;;;;4.72;4.32;;;31.00;75.30;;;;;;7678879;23;20219;-66
2021/07/26 09:47:30;;;;;;;3.50;3.20;;;31.20;72.30;;;;;;7677949;23;20581;-66
2021/07/26 09:50:44;;;;;;;4.47;3.45;;;31.10;71.10;;;;;;7678813;23;20675;-66
2021/07/26 09:53:50;;;;;;;5.82;3.83;;;30.80;70.00;;;;;;7652152;23;20461;-66
2021/07/26 09:57:12;;;;;;;3.05;2.83;;;30.90;72.20;;;;;;7678782;23;20169;-66
2021/07/26 10:00:16;;;;;;;3.80;3.08;;;31.10;66.40;;;;;;7677831;23;20211;-66
2021/07/26 10:03:19;;;;;;;3.47;3.17;;;30.90;67.40;;;;;;7627934;23;20172;-67
2021/07/26 10:06:22;;;;;;;3.30;3.10;;;30.90;67.80;;;;;;7678482;23;20187;-66
2021/07/26 10:09:24;;;;;;;3.35;3.08;;;30.90;65.10;;;;;;7677905;23;20172;-66
2021/07/26 10:12:27;;;;;;;6.75;3.25;;;31.20;67.20;;;;;;7652395;23;20172;-66
2021/07/26 10:15:32;;;;;;;5.05;3.85;;;31.50;66.50;;;;;;7677745;23;20164;-67
2021/07/26 10:18:34;;;;;;;4.60;3.60;;;31.80;68.60;;;;;;7678481;23;20543;-66
2021/07/26 10:21:36;;;;;;;6.70;3.53;;;32.00;69.80;;;;;;7678132;23;20207;-67
2021/07/26 10:24:59;;;;;;;4.75;3.42;;;31.70;64.10;;;;;;7650951;23;20597;-67
2021/07/26 10:28:09;;;;;;;7.97;4.00;;;31.60;63.00;;;;;;7678198;23;20152;-66
2021/07/26 10:31:32;;;;;;;5.63;3.53;;;31.70;66.70;;;;;;7677712;23;20228;-66
2021/07/26 10:34:34;;;;;;;3.60;3.30;;;32.30;70.80;;;;;;7678266;23;20221;-67
2021/07/26 10:37:39;;;;;;;3.88;3.42;;;32.70;69.70;;;;;;7677632;23;20179;-67
2021/07/26 10:40:43;;;;;;;4.13;3.70;;;32.80;62.80;;;;;;7677968;23;20642;-66
2021/07/26 10:43:55;;;;;;;4.63;3.42;;;32.80;60.50;;;;;;7678093;23;20168;-67
2021/07/26 10:47:04;;;;;;;7.32;3.70;;;32.80;67.30;;;;;;7651297;23;20168;-67
2021/07/26 10:50:14;;;;;;;3.50;3.20;;;33.00;68.10;;;;;;7678132;23;20153;-67
2021/07/26 10:53:37;;;;;;;3.90;3.40;;;32.90;62.80;;;;;;7677295;23;20539;-67
2021/07/26 10:57:09;;;;;;;4.20;3.80;;;33.40;66.50;;;;;;7663078;23;20173;-67
2021/07/26 11:00:15;;;;;;;3.92;3.53;;;33.60;58.70;;;;;;7651350;23;20152;-68
2021/07/26 11:03:40;;;;;;;3.80;3.33;;;33.50;58.30;;;;;;7651287;23;20227;-67
2021/07/26 11:06:57;;;;;;;4.28;3.78;;;33.70;59.10;;;;;;7677268;23;20184;-67
2021/07/26 11:09:59;;;;;;;4.85;3.90;;;33.90;61.00;;;;;;7677831;23;20149;-67
2021/07/26 11:13:01;;;;;;;5.10;3.53;;;34.00;57.80;;;;;;7677525;23;20168;-67
2021/07/26 11:16:03;;;;;;;4.40;3.67;;;34.10;58.30;;;;;;7677164;23;20270;-67
2021/07/26 11:19:31;;;;;;;6.25;4.07;;;33.90;60.40;;;;;;7677974;23;20644;-67
2021/07/26 11:22:34;;;;;;;4.25;3.85;;;33.90;58.00;;;;;;7650905;23;20256;-67
2021/07/26 11:25:39;;;;;;;4.35;3.95;;;34.00;58.30;;;;;;7677772;23;20156;-67
2021/07/26 11:28:41;;;;;;;4.55;3.95;;;34.30;58.00;;;;;;7651973;23;20239;-67
2021/07/26 11:31:45;;;;;;;4.05;3.65;;;34.70;60.60;;;;;;7676871;23;20165;-67
2021/07/26 11:34:54;;;;;;;5.15;3.60;;;35.00;56.10;;;;;;7677298;23;20160;-67
2021/07/26 11:38:04;;;;;;;8.25;3.60;;;35.10;58.00;;;;;;7677070;23;20465;-67
2021/07/26 11:41:16;;;;;;;5.03;3.65;;;35.30;55.30;;;;;;7677222;23;20179;-68
2021/07/26 11:44:27;;;;;;;4.30;3.60;;;35.30;55.90;;;;;;7677096;23;20153;-67
2021/07/26 11:47:32;;;;;;;4.18;3.78;;;35.30;54.30;;;;;;7650773;23;20172;-67
2021/07/26 11:50:40;;;;;;;3.88;3.47;;;35.30;54.70;;;;;;7626707;23;20561;-68
2021/07/26 11:53:42;;;;;;;3.30;3.00;;;35.40;52.70;;;;;;7676913;23;20164;-67
2021/07/26 11:56:44;;;;;;;4.18;3.40;;;35.40;52.90;;;;;;7650700;23;20609;-67
2021/07/26 11:59:54;;;;;;;4.43;3.22;;;35.40;52.40;;;;;;7676411;23;20247;-67
2021/07/26 12:02:58;;;;;;;6.10;3.25;;;35.10;51.50;;;;;;7651001;23;20173;-68
2021/07/26 12:06:03;;;;;;;5.55;3.17;;;35.00;53.70;;;;;;7676348;23;20244;-67
2021/07/26 12:09:05;;;;;;;5.25;3.35;;;35.00;55.60;;;;;;7626612;23;20568;-67
2021/07/26 12:12:15;;;;;;;5.10;3.53;;;35.40;57.50;;;;;;7676635;23;20172;-67
2021/07/26 12:15:25;;;;;;;4.18;3.78;;;35.80;54.00;;;;;;7650222;23;20178;-67
2021/07/26 12:18:32;;;;;;;3.90;3.50;;;36.00;52.20;;;;;;7677026;23;20156;-68
2021/07/26 12:21:35;;;;;;;4.78;3.88;;;36.10;51.00;;;;;;7649812;23;20263;-67
2021/07/26 12:24:49;;;;;;;4.65;3.33;;;36.10;50.30;;;;;;7676730;23;20168;-68
2021/07/26 12:28:02;;;;;;;4.22;3.25;;;35.50;51.00;;;;;;7677746;23;20175;-68
2021/07/26 12:31:23;;;;;;;4.15;3.50;;;35.70;53.70;;;;;;7650301;23;20169;-68
2021/07/26 12:34:25;;;;;;;3.55;3.25;;;36.10;51.20;;;;;;7677265;23;20168;-67
2021/07/26 12:37:28;;;;;;;4.00;3.58;;;35.90;53.20;;;;;;7676244;23;20171;-68
2021/07/26 12:40:32;;;;;;;4.35;3.95;;;35.80;51.70;;;;;;7676639;23;20593;-67
2021/07/26 12:43:36;;;;;;;3.53;3.22;;;35.70;51.30;;;;;;7676312;23;20576;-67
2021/07/26 12:46:43;;;;;;;4.00;3.20;;;36.00;53.60;;;;;;7676603;23;20237;-67
2021/07/26 12:49:46;;;;;;;3.50;3.20;;;36.10;51.50;;;;;;7650363;23;20176;-68
2021/07/26 12:52:48;;;;;;;3.83;3.47;;;36.40;54.30;;;;;;7676013;23;20168;-67
2021/07/26 12:55:51;;;;;;;4.03;3.67;;;36.80;52.90;;;;;;7650700;23;20191;-67
2021/07/26 12:58:54;;;;;;;4.20;3.40;;;37.00;55.20;;;;;;7676168;23;20168;-67
2021/07/26 13:01:56;;;;;;;3.15;2.85;;;37.30;54.90;;;;;;7676396;23;20271;-68
2021/07/26 13:04:58;;;;;;;4.57;3.83;;;37.60;55.10;;;;;;7676506;23;20180;-67
2021/07/26 13:08:00;;;;;;;5.35;3.92;;;37.80;54.20;;;;;;7676320;23;20171;-68
2021/07/26 13:11:04;;;;;;;6.30;4.70;;;37.50;51.00;;;;;;7676558;23;20242;-67
2021/07/26 13:14:06;;;;;;;4.38;3.80;;;37.30;49.00;;;;;;7649583;23;20559;-67
2021/07/26 13:17:08;;;;;;;7.32;3.72;;;37.30;52.20;;;;;;7676365;23;20580;-67
2021/07/26 13:20:11;;;;;;;6.10;3.80;;;37.40;53.50;;;;;;7675861;23;20206;-67
2021/07/26 13:23:13;;;;;;;7.15;4.13;;;37.30;47.90;;;;;;7676698;23;20184;-68
2021/07/26 13:26:16;;;;;;;4.10;3.70;;;36.60;48.00;;;;;;7676605;23;20243;-68
2021/07/26 13:29:18;;;;;;;4.60;4.00;;;36.40;48.40;;;;;;7676003;23;20168;-67
2021/07/26 13:32:40;;;;;;;5.55;4.03;;;36.50;48.30;;;;;;7676539;23;20503;-67
2021/07/26 13:35:43;;;;;;;4.78;3.80;;;36.70;48.30;;;;;;7675663;23;20192;-67
2021/07/26 13:38:45;;;;;;;5.88;4.00;;;37.20;51.80;;;;;;7676487;23;20168;-67
2021/07/26 13:41:47;;;;;;;4.53;3.78;;;37.80;52.20;;;;;;7676319;23;20212;-67
2021/07/26 13:44:50;;;;;;;5.40;3.72;;;38.10;46.90;;;;;;7649422;23;20617;-68
2021/07/26 13:47:55;;;;;;;5.50;4.20;;;38.40;51.20;;;;;;7676539;23;20171;-67
2021/07/26 13:50:57;;;;;;;5.05;4.00;;;38.90;51.50;;;;;;7675855;23;20581;-67
2021/07/26 13:53:59;;;;;;;6.43;4.53;;;39.30;47.50;;;;;;7676445;23;20173;-67
2021/07/26 13:57:02;;;;;;;4.88;4.25;;;39.00;47.10;;;;;;7675746;23;20192;-68
2021/07/26 14:00:05;;;;;;;4.70;4.28;;;38.80;49.10;;;;;;7651740;23;20172;-67
2021/07/26 14:03:13;;;;;;;4.90;4.30;;;39.00;50.30;;;;;;7678444;23;20192;-67
2021/07/26 14:06:15;;;;;;;4.47;4.03;;;39.20;49.70;;;;;;7677796;23;20252;-67
2021/07/26 14:09:18;;;;;;;7.22;4.05;;;39.70;50.20;;;;;;7678794;23;20246;-68
2021/07/26 14:12:20;;;;;;;5.57;4.68;;;40.30;50.20;;;;;;7677877;23;20175;-67
2021/07/26 14:15:23;;;;;;;4.22;3.85;;;40.30;46.30;;;;;;7627924;23;20644;-67
2021/07/26 14:18:26;;;;;;;5.60;3.85;;;40.60;48.20;;;;;;7678500;23;20622;-68
2021/07/26 14:21:28;;;;;;;6.07;3.88;;;41.20;47.10;;;;;;7677477;23;20203;-67
2021/07/26 14:24:30;;;;;;;5.93;3.97;;;41.60;47.80;;;;;;7651905;23;20254;-67
2021/07/26 14:27:32;;;;;;;4.75;4.15;;;42.00;47.30;;;;;;7677872;23;20160;-67
2021/07/26 14:30:35;;;;;;;5.70;4.63;;;42.50;46.80;;;;;;7678251;23;20160;-67
2021/07/26 14:33:37;;;;;;;4.45;3.75;;;42.50;43.80;;;;;;7678131;23;20548;-68
2021/07/26 14:36:59;;;;;;;5.30;4.40;;;42.70;46.30;;;;;;7677898;23;20149;-67
2021/07/26 14:40:02;;;;;;;5.70;3.95;;;43.00;45.10;;;;;;7678306;23;20247;-67
2021/07/26 14:43:05;;;;;;;8.52;4.78;;;43.20;44.50;;;;;;7651350;23;20621;-67
2021/07/26 14:46:08;;;;;;;5.53;4.50;;;43.20;40.90;;;;;;7651967;23;20161;-68
2021/07/26 14:49:11;;;;;;;6.75;4.03;;;43.10;42.80;;;;;;7677323;23;20160;-67
2021/07/26 14:52:13;;;;;;;5.55;4.35;;;43.30;45.00;;;;;;7677901;23;20175;-67
2021/07/26 14:55:16;;;;;;;6.85;4.47;;;43.50;44.00;;;;;;7678108;23;20226;-67
2021/07/26 14:58:18;;;;;;;7.15;4.68;;;43.50;41.40;;;;;;7677424;23;20187;-67
2021/07/26 15:01:20;;;;;;;8.38;5.35;;;43.30;40.30;;;;;;7677731;23;20266;-67
2021/07/26 15:04:23;;;;;;;9.98;4.18;;;43.00;39.00;;;;;;7676983;23;20553;-67
2021/07/26 15:07:25;;;;;;;8.23;4.82;;;43.00;43.70;;;;;;7677918;23;20664;-67
2021/07/26 15:10:29;;;;;;;6.28;4.78;;;42.90;41.80;;;;;;7677702;23;20160;-67
2021/07/26 15:13:31;;;;;;;8.65;5.00;;;42.60;44.20;;;;;;7676995;23;20168;-68
2021/07/26 15:16:34;;;;;;;5.70;5.07;;;42.80;44.40;;;;;;7651159;23;20250;-67
2021/07/26 15:19:37;;;;;;;5.13;4.30;;;42.90;43.20;;;;;;7677085;23;20211;-67
2021/07/26 15:22:39;;;;;;;7.78;4.82;;;43.00;43.00;;;;;;7676916;23;20211;-67
2021/07/26 15:25:42;;;;;;;12.30;4.95;;;43.30;43.20;;;;;;7676866;23;20171;-67
2021/07/26 15:28:44;;;;;;;8.25;5.22;;;43.40;42.00;;;;;;7677666;23;20234;-67
2021/07/26 15:31:46;;;;;;;8.43;5.07;;;43.40;43.00;;;;;;7651223;23;20246;-67
2021/07/26 15:34:51;;;;;;;8.00;5.28;;;43.40;43.40;;;;;;7650738;23;20295;-67
2021/07/26 15:37:53;;;;;;;9.02;5.38;;;43.10;43.10;;;;;;7677394;23;20172;-67
2021/07/26 15:40:55;;;;;;;8.15;5.20;;;42.50;43.80;;;;;;7676867;23;20215;-67
2021/07/26 15:43:58;;;;;;;7.35;5.07;;;41.50;45.00;;;;;;7677398;23;20171;-67
2021/07/26 15:47:00;;;;;;;6.35;5.25;;;40.40;47.00;;;;;;7651218;23;20160;-67
2021/07/26 15:50:04;;;;;;;6.20;5.30;;;39.50;47.50;;;;;;7676558;23;20183;-67
2021/07/26 15:53:10;;;;;;;8.48;5.05;;;38.30;49.10;;;;;;7650798;23;20230;-67
2021/07/26 15:56:12;;;;;;;12.07;5.35;;;37.00;50.90;;;;;;7676726;23;20611;-67